createdAt,value
2023-02-09T00:01:41.843Z,11.80
2023-02-09T00:03:44.210Z,11.40
2023-02-09T00:05:45.881Z,12.20
2023-02-09T00:07:47.583Z,11.30
2023-02-09T00:09:51.228Z,15.33
2023-02-09T00:12:11.488Z,12.10
2023-02-09T00:14:15.192Z,14.27
2023-02-09T00:16:18.505Z,13.90
2023-02-09T00:18:20.928Z,12.70
2023-02-09T00:20:22.588Z,12.93
2023-02-09T00:22:24.269Z,10.43
2023-02-09T00:24:25.968Z,16.23
2023-02-09T00:26:27.768Z,13.63
2023-02-09T00:28:30.041Z,13.10
2023-02-09T00:30:31.757Z,11.30
2023-02-09T00:32:33.416Z,13.33
2023-02-09T00:34:35.110Z,13.50
2023-02-09T00:36:36.773Z,13.70
2023-02-09T00:38:40.033Z,14.60
2023-02-09T00:40:42.569Z,10.50
2023-02-09T00:42:44.492Z,13.63
2023-02-09T00:44:46.248Z,14.43
2023-02-09T00:46:49.209Z,14.40
2023-02-09T00:48:50.863Z,12.63
2023-02-09T00:50:53.680Z,15.53
2023-02-09T00:52:55.470Z,10.80
2023-02-09T00:54:57.120Z,10.33
2023-02-09T00:57:05.063Z,11.90
2023-02-09T00:59:06.740Z,15.47
2023-02-09T01:01:13.332Z,10.50
2023-02-09T01:03:15.035Z,12.17
2023-02-09T01:05:16.784Z,15.10
2023-02-09T01:07:18.466Z,11.90
2023-02-09T01:09:20.073Z,11.10
2023-02-09T01:11:22.973Z,13.40
2023-02-09T01:13:24.840Z,13.57
2023-02-09T01:15:26.540Z,12.50
2023-02-09T01:17:28.883Z,13.30
2023-02-09T01:19:30.938Z,13.43
2023-02-09T01:21:33.095Z,12.23
2023-02-09T01:23:34.818Z,13.70
2023-02-09T01:25:36.457Z,13.77
2023-02-09T01:27:38.167Z,12.83
2023-02-09T01:29:40.731Z,13.60
2023-02-09T01:31:43.392Z,14.33
2023-02-09T01:33:45.038Z,17.50
2023-02-09T01:35:46.636Z,13.90
2023-02-09T01:37:48.292Z,13.70
2023-02-09T01:39:49.975Z,12.60
2023-02-09T01:41:51.677Z,11.43
2023-02-09T01:44:04.210Z,11.80
2023-02-09T01:46:05.858Z,13.13
2023-02-09T01:48:07.667Z,12.67
2023-02-09T01:50:09.697Z,13.87
2023-02-09T01:52:16.213Z,13.37
2023-02-09T01:54:25.719Z,14.10
2023-02-09T01:56:31.128Z,11.33
2023-02-09T01:58:33.528Z,13.90
2023-02-09T02:00:35.436Z,13.47
2023-02-09T02:02:38.394Z,15.47
2023-02-09T02:04:42.775Z,12.97
2023-02-09T02:06:44.697Z,14.50
2023-02-09T02:08:56.429Z,14.93
2023-02-09T02:10:58.745Z,14.27
2023-02-09T02:13:01.259Z,12.67
2023-02-09T02:15:03.068Z,15.13
2023-02-09T02:17:10.286Z,12.93
2023-02-09T02:19:38.912Z,15.10
2023-02-09T02:21:55.548Z,13.73
2023-02-09T02:24:18.540Z,13.00
2023-02-09T02:26:50.997Z,16.10
2023-02-09T02:28:58.327Z,17.63
2023-02-09T02:31:18.851Z,13.93
2023-02-09T02:33:36.015Z,15.97
2023-02-09T02:35:43.985Z,14.70
2023-02-09T02:38:02.965Z,18.10
2023-02-09T02:40:21.803Z,16.23
2023-02-09T02:42:51.629Z,17.43
2023-02-09T02:45:03.886Z,16.63
2023-02-09T02:47:08.588Z,17.07
2023-02-09T02:49:15.867Z,15.93
2023-02-09T02:51:36.744Z,18.87
2023-02-09T02:53:42.012Z,18.87
2023-02-09T02:55:45.695Z,17.67
2023-02-09T02:57:51.054Z,16.20
2023-02-09T02:59:59.137Z,15.83
2023-02-09T03:02:14.290Z,17.47
2023-02-09T03:04:17.102Z,14.27
2023-02-09T03:06:19.011Z,16.87
2023-02-09T03:08:20.672Z,15.43
2023-02-09T03:10:34.996Z,15.63
2023-02-09T03:13:08.167Z,15.10
2023-02-09T03:15:44.615Z,13.97
2023-02-09T03:17:55.144Z,15.43
2023-02-09T03:20:10.669Z,14.27
2023-02-09T03:22:25.964Z,14.70
2023-02-09T03:24:35.908Z,15.33
2023-02-09T03:26:49.329Z,15.73
2023-02-09T03:28:54.755Z,13.80
2023-02-09T03:30:58.727Z,17.47
2023-02-09T03:33:02.004Z,14.07
2023-02-09T03:35:04.314Z,14.70
2023-02-09T03:37:06.064Z,14.83
2023-02-09T03:39:08.083Z,16.93
2023-02-09T03:41:10.115Z,15.17
2023-02-09T03:43:11.802Z,15.80
2023-02-09T03:45:13.445Z,14.80
2023-02-09T03:47:15.075Z,14.47
2023-02-09T03:49:16.767Z,15.57
2023-02-09T03:51:18.426Z,14.13
2023-02-09T03:53:20.320Z,14.87
2023-02-09T03:55:21.993Z,15.40
2023-02-09T03:57:23.681Z,14.57
2023-02-09T03:59:26.297Z,17.40
2023-02-09T04:01:27.949Z,14.30
2023-02-09T04:03:29.571Z,17.10
2023-02-09T04:05:31.208Z,15.90
2023-02-09T04:07:32.881Z,16.17
2023-02-09T04:09:34.755Z,16.40
2023-02-09T04:11:36.695Z,15.80
2023-02-09T04:13:38.334Z,16.37
2023-02-09T04:15:40.115Z,15.53
2023-02-09T04:17:41.784Z,16.27
2023-02-09T04:19:43.424Z,17.20
2023-02-09T04:21:45.153Z,15.13
2023-02-09T04:23:46.813Z,15.30
2023-02-09T04:25:48.471Z,16.93
2023-02-09T04:27:50.202Z,16.60
2023-02-09T04:29:51.880Z,15.27
2023-02-09T04:31:53.665Z,15.10
2023-02-09T04:33:55.326Z,16.53
2023-02-09T04:35:57.457Z,16.27
2023-02-09T04:37:59.154Z,14.30
2023-02-09T04:40:00.858Z,15.80
2023-02-09T04:42:02.544Z,15.17
2023-02-09T04:44:04.434Z,16.17
2023-02-09T04:46:06.250Z,15.90
2023-02-09T04:48:11.102Z,16.43
2023-02-09T04:50:12.864Z,14.53
2023-02-09T04:52:14.490Z,15.50
2023-02-09T04:54:16.132Z,19.73
2023-02-09T04:56:18.001Z,18.17
2023-02-09T04:58:39.050Z,15.03
2023-02-09T05:00:40.810Z,17.27
2023-02-09T05:02:42.568Z,15.40
2023-02-09T05:04:44.324Z,20.20
2023-02-09T05:06:46.260Z,16.50
2023-02-09T05:08:48.618Z,18.93
2023-02-09T05:10:51.644Z,17.23
2023-02-09T05:12:53.333Z,20.20
2023-02-09T05:14:54.934Z,23.53
2023-02-09T05:16:56.711Z,16.50
2023-02-09T05:18:58.505Z,16.93
2023-02-09T05:21:00.171Z,19.13
2023-02-09T05:23:02.239Z,19.63
2023-02-09T05:25:04.336Z,18.67
2023-02-09T05:27:05.955Z,21.00
2023-02-09T05:29:10.656Z,17.33
2023-02-09T05:31:12.460Z,20.67
2023-02-09T05:33:14.216Z,19.07
2023-02-09T05:35:16.055Z,20.93
2023-02-09T05:37:17.776Z,18.67
2023-02-09T05:39:19.453Z,19.53
2023-02-09T05:41:39.770Z,21.57
2023-02-09T05:43:41.408Z,20.00
2023-02-09T05:45:44.781Z,20.90
2023-02-09T05:47:46.454Z,23.80
2023-02-09T05:49:48.208Z,19.20
2023-02-09T05:51:49.965Z,23.47
2023-02-09T05:53:53.941Z,22.43
2023-02-09T05:55:55.594Z,20.83
2023-02-09T05:57:57.325Z,21.57
2023-02-09T05:59:58.979Z,20.57
2023-02-09T06:02:01.134Z,23.70
2023-02-09T06:04:02.961Z,23.40
2023-02-09T06:06:05.760Z,22.20
2023-02-09T06:08:07.387Z,19.97
2023-02-09T06:10:09.430Z,19.40
2023-02-09T06:12:11.141Z,18.70
2023-02-09T06:14:13.124Z,21.30
2023-02-09T06:16:14.890Z,21.30
2023-02-09T06:18:16.626Z,19.60
2023-02-09T06:20:18.498Z,22.27
2023-02-09T06:22:20.207Z,19.60
2023-02-09T06:24:21.873Z,23.30
2023-02-09T06:26:23.587Z,21.20
2023-02-09T06:28:25.355Z,23.20
2023-02-09T06:30:27.038Z,20.53
2023-02-09T06:32:28.696Z,26.80
2023-02-09T06:34:30.363Z,28.43
2023-02-09T06:36:32.448Z,28.03
2023-02-09T06:38:35.091Z,26.70
2023-02-09T06:40:36.840Z,26.87
2023-02-09T06:42:44.771Z,24.37
2023-02-09T06:44:46.457Z,23.03
2023-02-09T06:46:48.155Z,22.33
2023-02-09T06:48:49.925Z,24.00
2023-02-09T06:50:51.717Z,22.80
2023-02-09T06:52:53.613Z,21.10
2023-02-09T06:54:55.259Z,21.27
2023-02-09T06:56:56.928Z,19.63
2023-02-09T06:58:58.531Z,21.33
2023-02-09T07:01:11.884Z,20.13
2023-02-09T07:03:13.750Z,22.10
2023-02-09T07:05:17.201Z,22.00
2023-02-09T07:07:18.913Z,19.97
2023-02-09T07:09:20.706Z,19.53
2023-02-09T07:11:22.447Z,18.93
2023-02-09T07:13:24.112Z,20.67
2023-02-09T07:15:25.757Z,20.40
2023-02-09T07:17:31.014Z,19.73
2023-02-09T07:19:32.662Z,21.17
2023-02-09T07:21:34.406Z,20.53
2023-02-09T07:23:36.478Z,20.50
2023-02-09T07:25:38.193Z,16.80
2023-02-09T07:27:44.231Z,19.97
2023-02-09T07:29:45.895Z,23.73
2023-02-09T07:31:47.673Z,21.23
2023-02-09T07:33:49.409Z,23.67
2023-02-09T07:35:51.049Z,19.87
2023-02-09T07:37:52.824Z,19.23
2023-02-09T07:39:54.619Z,19.77
2023-02-09T07:41:56.595Z,20.80
2023-02-09T07:43:58.264Z,21.37
2023-02-09T07:46:05.176Z,20.67
2023-02-09T07:48:07.611Z,18.00
2023-02-09T07:50:09.383Z,19.40
2023-02-09T07:52:11.382Z,20.83
2023-02-09T07:54:14.928Z,23.00
2023-02-09T07:56:17.048Z,19.83
2023-02-09T07:58:20.173Z,21.80
2023-02-09T08:00:22.463Z,22.47
2023-02-09T08:02:33.030Z,22.57
2023-02-09T08:04:34.748Z,20.97
2023-02-09T08:06:43.392Z,18.50
2023-02-09T08:08:49.576Z,20.50
2023-02-09T08:10:51.690Z,21.10
2023-02-09T08:13:02.120Z,24.43
2023-02-09T08:15:05.612Z,21.87
2023-02-09T08:17:20.639Z,20.17
2023-02-09T08:19:24.044Z,20.30
2023-02-09T08:21:28.024Z,21.17
2023-02-09T08:23:32.759Z,20.47
2023-02-09T08:25:35.888Z,22.43
2023-02-09T08:27:40.281Z,22.10
2023-02-09T08:29:42.173Z,24.00
2023-02-09T08:31:43.886Z,19.93
2023-02-09T08:33:47.594Z,27.53
2023-02-09T08:35:52.350Z,25.90
2023-02-09T08:37:54.066Z,24.37
2023-02-09T08:39:55.734Z,20.77
2023-02-09T08:41:57.377Z,23.40
2023-02-09T08:43:59.251Z,24.37
2023-02-09T08:46:12.665Z,24.87
2023-02-09T08:48:14.412Z,23.90
2023-02-09T08:50:16.453Z,19.60
2023-02-09T08:52:18.544Z,23.37
2023-02-09T08:54:20.300Z,21.40
2023-02-09T08:56:22.680Z,26.03
2023-02-09T08:58:25.761Z,23.30
2023-02-09T09:00:27.607Z,24.20
2023-02-09T09:02:29.260Z,23.60
2023-02-09T09:04:31.026Z,22.23
2023-02-09T09:06:33.111Z,22.10
2023-02-09T09:08:36.079Z,25.80
2023-02-09T09:10:37.731Z,21.87
2023-02-09T09:12:39.916Z,26.13
2023-02-09T09:14:44.405Z,25.17
2023-02-09T09:16:46.162Z,26.27
2023-02-09T09:18:48.042Z,21.77
2023-02-09T09:20:49.820Z,23.70
2023-02-09T09:22:51.536Z,28.60
2023-02-09T09:24:55.278Z,28.20
2023-02-09T09:26:57.679Z,29.73
2023-02-09T09:28:59.360Z,25.90
2023-02-09T09:31:06.723Z,25.00
2023-02-09T09:33:08.421Z,26.40
2023-02-09T09:35:10.153Z,27.57
2023-02-09T09:37:11.869Z,29.63
2023-02-09T09:39:13.612Z,30.97
2023-02-09T09:41:28.320Z,27.60
2023-02-09T09:43:36.887Z,31.70
2023-02-09T09:45:39.333Z,26.97
2023-02-09T09:47:43.012Z,30.40
2023-02-09T09:49:44.800Z,30.53
2023-02-09T09:51:50.108Z,29.03
2023-02-09T09:53:55.293Z,29.50
2023-02-09T09:56:03.476Z,28.63
2023-02-09T09:58:07.304Z,33.17
2023-02-09T10:00:31.953Z,34.70
2023-02-09T10:02:34.623Z,30.70
2023-02-09T10:04:36.324Z,25.60
2023-02-09T10:06:42.563Z,28.43
2023-02-09T10:08:56.381Z,25.93
2023-02-09T10:11:02.490Z,28.10
2023-02-09T10:13:13.876Z,30.10
2023-02-09T10:15:25.106Z,30.03
2023-02-09T10:17:26.807Z,29.03
2023-02-09T10:19:30.256Z,29.73
2023-02-09T10:21:35.879Z,27.53
2023-02-09T10:24:11.823Z,33.60
2023-02-09T10:26:26.880Z,30.43
2023-02-09T10:28:33.850Z,29.90
2023-02-09T10:30:35.568Z,26.70
2023-02-09T10:32:41.402Z,31.70
2023-02-09T10:34:47.508Z,28.50
2023-02-09T10:36:53.699Z,35.20
2023-02-09T10:39:14.016Z,31.50
2023-02-09T10:41:16.187Z,29.30
2023-02-09T10:43:31.384Z,27.47
2023-02-09T10:45:39.682Z,29.57
2023-02-09T10:47:41.872Z,29.40
2023-02-09T10:49:43.558Z,29.93
2023-02-09T10:51:45.230Z,32.90
2023-02-09T10:53:55.690Z,33.83
2023-02-09T10:56:03.360Z,33.57
2023-02-09T10:58:12.244Z,30.27
2023-02-09T11:00:16.895Z,31.33
2023-02-09T11:02:41.153Z,32.80
2023-02-09T11:04:46.471Z,33.10
2023-02-09T11:07:03.605Z,31.87
2023-02-09T11:09:15.856Z,34.27
2023-02-09T11:11:38.680Z,28.90
2023-02-09T11:13:41.971Z,30.80
2023-02-09T11:15:54.153Z,31.20
2023-02-09T11:18:06.344Z,31.60
2023-02-09T11:20:26.565Z,28.83
2023-02-09T11:22:30.967Z,29.40
2023-02-09T11:25:04.714Z,31.23
2023-02-09T11:27:31.647Z,26.87
2023-02-09T11:29:47.393Z,31.80
2023-02-09T11:32:09.613Z,28.37
2023-02-09T11:34:19.410Z,30.25
2023-02-09T11:36:33.855Z,32.20
2023-02-09T11:38:49.343Z,30.00
2023-02-09T11:40:55.296Z,28.37
2023-02-09T11:43:13.003Z,30.50
2023-02-09T11:45:17.467Z,37.00
2023-02-09T11:47:33.200Z,31.40
2023-02-09T11:49:49.685Z,33.40
2023-02-09T11:51:55.254Z,29.73
2023-02-09T11:54:05.693Z,32.67
2023-02-09T11:56:16.187Z,25.40
2023-02-09T11:58:26.450Z,38.50
2023-02-09T12:00:52.570Z,28.53
2023-02-09T12:03:05.739Z,31.33
2023-02-09T12:05:12.343Z,35.67
2023-02-09T12:07:30.706Z,28.23
2023-02-09T12:09:55.544Z,32.73
2023-02-09T12:12:15.854Z,29.63
2023-02-09T12:14:45.004Z,24.77
2023-02-09T12:16:58.123Z,27.60
2023-02-09T12:19:00.181Z,24.67
2023-02-09T12:21:05.361Z,31.30
2023-02-09T12:23:25.646Z,27.47
2023-02-09T12:25:44.979Z,24.13
2023-02-09T12:28:13.882Z,24.30
2023-02-09T12:30:40.434Z,27.33
2023-02-09T12:32:44.392Z,51.10
2023-02-09T12:34:51.321Z,23.10
2023-02-09T12:37:18.697Z,31.63
2023-02-09T12:39:28.398Z,31.77
2023-02-09T12:41:34.595Z,35.40
2023-02-09T12:43:37.985Z,25.47
2023-02-09T12:45:44.190Z,24.70
2023-02-09T12:47:56.805Z,23.33
2023-02-09T12:50:05.248Z,27.03
2023-02-09T12:52:15.662Z,29.13
2023-02-09T12:54:48.265Z,27.73
2023-02-09T12:56:49.973Z,26.53
2023-02-09T12:58:51.567Z,26.73
2023-02-09T13:00:55.050Z,29.80
2023-02-09T13:03:07.879Z,24.20
2023-02-09T13:05:17.726Z,19.20
2023-02-09T13:07:51.473Z,30.00
2023-02-09T13:09:55.439Z,21.37
2023-02-09T13:12:04.415Z,23.07
2023-02-09T13:14:11.636Z,26.00
2023-02-09T13:16:43.001Z,59.30
2023-02-09T13:19:00.574Z,21.33
2023-02-09T13:21:14.264Z,24.43
2023-02-09T13:23:38.983Z,24.03
2023-02-09T13:25:40.761Z,27.40
2023-02-09T13:27:48.186Z,25.20
2023-02-09T13:29:54.888Z,24.67
2023-02-09T13:32:10.172Z,27.17
2023-02-09T13:34:31.396Z,28.07
2023-02-09T13:36:45.693Z,27.00
2023-02-09T13:38:47.470Z,33.63
2023-02-09T13:40:50.765Z,26.90
2023-02-09T13:42:54.237Z,26.70
2023-02-09T13:44:58.546Z,27.60
2023-02-09T13:47:02.068Z,28.43
2023-02-09T13:49:17.786Z,28.90
2023-02-09T13:51:20.499Z,28.20
2023-02-09T13:53:24.746Z,26.37
2023-02-09T13:55:29.111Z,28.77
2023-02-09T13:57:40.663Z,29.30
2023-02-09T13:59:43.066Z,29.30
2023-02-09T14:01:48.236Z,31.23
2023-02-09T14:03:58.891Z,29.20
2023-02-09T14:06:09.944Z,27.87
2023-02-09T14:08:13.911Z,29.90
2023-02-09T14:10:17.216Z,30.93
2023-02-09T14:12:46.196Z,27.80
2023-02-09T14:15:14.954Z,27.20
2023-02-09T14:17:28.393Z,62.73
2023-02-09T14:19:33.471Z,29.17
2023-02-09T14:21:45.797Z,57.57
2023-02-09T14:24:12.811Z,31.83
2023-02-09T14:26:14.423Z,34.83
2023-02-09T14:28:16.125Z,29.37
2023-02-09T14:30:34.150Z,26.20
2023-02-09T14:32:37.077Z,29.00
2023-02-09T14:34:40.168Z,27.40
2023-02-09T14:36:55.085Z,29.10
2023-02-09T14:39:19.950Z,31.63
2023-02-09T14:41:29.054Z,30.10
2023-02-09T14:43:30.819Z,28.07
2023-02-09T14:45:45.098Z,26.87
2023-02-09T14:47:47.505Z,32.23
2023-02-09T14:49:49.148Z,29.13
2023-02-09T14:52:02.395Z,26.63
2023-02-09T14:54:06.115Z,31.30
2023-02-09T14:56:28.274Z,29.10
2023-02-09T14:58:31.828Z,30.40
2023-02-09T15:00:33.928Z,28.60
2023-02-09T15:02:35.665Z,30.83
2023-02-09T15:04:37.385Z,32.13
2023-02-09T15:06:41.201Z,28.73
2023-02-09T15:08:43.467Z,29.50
2023-02-09T15:10:58.026Z,32.50
2023-02-09T15:13:00.401Z,42.00
2023-02-09T15:15:02.417Z,38.17
2023-02-09T15:17:20.390Z,35.43
2023-02-09T15:19:22.703Z,33.60
2023-02-09T15:21:24.429Z,33.20
2023-02-09T15:23:26.191Z,42.00
2023-02-09T15:25:29.168Z,46.97
2023-02-09T15:27:36.004Z,49.00
2023-02-09T15:29:37.746Z,46.07
2023-02-09T15:31:39.886Z,34.70
2023-02-09T15:33:41.576Z,41.90
2023-02-09T15:35:43.226Z,38.00
2023-02-09T15:37:54.119Z,50.53
2023-02-09T15:40:02.489Z,34.80
2023-02-09T15:42:31.062Z,37.43
2023-02-09T15:44:51.439Z,30.50
2023-02-09T15:47:11.960Z,36.53
2023-02-09T15:49:13.644Z,37.47
2023-02-09T15:51:16.767Z,31.63
2023-02-09T15:53:19.192Z,32.30
2023-02-09T15:55:22.853Z,34.60
2023-02-09T15:57:27.781Z,41.30
2023-02-09T15:59:29.424Z,43.87
2023-02-09T16:01:34.639Z,35.77
2023-02-09T16:03:36.534Z,37.07
2023-02-09T16:05:38.194Z,31.57
2023-02-09T16:07:39.870Z,39.97
2023-02-09T16:09:43.415Z,40.73
2023-02-09T16:11:45.218Z,30.20
2023-02-09T16:13:48.004Z,34.77
2023-02-09T16:15:49.915Z,36.77
2023-02-09T16:17:52.108Z,38.77
2023-02-09T16:19:53.759Z,39.97
2023-02-09T16:21:58.356Z,35.83
2023-02-09T16:24:03.818Z,48.80
2023-02-09T16:26:06.398Z,43.33
2023-02-09T16:28:11.774Z,40.30
2023-02-09T16:30:22.667Z,42.37
2023-02-09T16:32:26.864Z,36.93
2023-02-09T16:34:28.515Z,38.20
2023-02-09T16:36:30.981Z,41.90
2023-02-09T16:38:32.657Z,44.97
2023-02-09T16:40:34.276Z,51.13
2023-02-09T16:42:35.930Z,69.10
2023-02-09T16:44:37.833Z,54.47
2023-02-09T16:46:39.612Z,64.23
2023-02-09T16:48:45.372Z,46.70
2023-02-09T16:50:53.073Z,37.57
2023-02-09T16:52:56.454Z,44.30
2023-02-09T16:55:00.838Z,38.43
2023-02-09T16:57:02.978Z,40.30
2023-02-09T16:59:04.699Z,44.10
2023-02-09T17:01:24.779Z,46.20
2023-02-09T17:03:31.852Z,47.00
2023-02-09T17:05:37.050Z,40.83
2023-02-09T17:07:52.489Z,45.00
2023-02-09T17:09:57.236Z,37.77
2023-02-09T17:11:58.895Z,47.33
2023-02-09T17:14:00.566Z,43.60
2023-02-09T17:16:05.257Z,52.17
2023-02-09T17:18:09.298Z,57.43
2023-02-09T17:20:17.176Z,48.77
2023-02-09T17:22:19.250Z,59.43
2023-02-09T17:24:21.061Z,46.80
2023-02-09T17:26:22.882Z,51.20
2023-02-09T17:28:26.897Z,52.93
2023-02-09T17:30:32.688Z,84.63
2023-02-09T17:32:38.575Z,67.43
2023-02-09T17:34:40.759Z,57.70
2023-02-09T17:36:43.381Z,64.90
2023-02-09T17:38:45.437Z,46.10
2023-02-09T17:40:47.246Z,60.67
2023-02-09T17:42:52.820Z,45.87
2023-02-09T17:44:56.262Z,65.27
2023-02-09T17:46:59.016Z,51.90
2023-02-09T17:49:00.691Z,41.00
2023-02-09T17:51:04.564Z,47.47
2023-02-09T17:53:14.750Z,47.47
2023-02-09T17:55:26.111Z,41.07
2023-02-09T17:57:28.149Z,40.90
2023-02-09T17:59:29.856Z,36.63
2023-02-09T18:01:33.256Z,47.40
2023-02-09T18:03:34.906Z,44.63
2023-02-09T18:05:38.277Z,41.80
2023-02-09T18:07:39.956Z,43.70
2023-02-09T18:09:41.610Z,48.10
2023-02-09T18:11:52.221Z,45.43
2023-02-09T18:13:53.925Z,54.73
2023-02-09T18:15:55.790Z,52.67
2023-02-09T18:17:57.457Z,49.53
2023-02-09T18:19:59.112Z,44.23
2023-02-09T18:22:02.615Z,39.80
2023-02-09T18:24:05.925Z,38.57
2023-02-09T18:26:08.093Z,44.77
2023-02-09T18:28:09.936Z,51.23
2023-02-09T18:30:12.816Z,44.67
2023-02-09T18:32:16.689Z,38.97
2023-02-09T18:34:18.450Z,40.20
2023-02-09T18:36:20.151Z,39.20
2023-02-09T18:38:21.827Z,41.60
2023-02-09T18:40:24.045Z,40.47
2023-02-09T18:42:25.681Z,43.90
2023-02-09T18:44:32.253Z,40.20
2023-02-09T18:46:34.106Z,36.53
2023-02-09T18:48:35.806Z,37.67
2023-02-09T18:50:38.349Z,43.20
2023-02-09T18:52:57.926Z,39.33
2023-02-09T18:54:59.656Z,34.83
2023-02-09T18:57:01.323Z,36.70
2023-02-09T18:59:03.277Z,36.30
2023-02-09T19:01:10.944Z,34.37
2023-02-09T19:03:16.994Z,36.53
2023-02-09T19:05:19.115Z,38.87
2023-02-09T19:07:21.077Z,32.97
2023-02-09T19:09:22.820Z,40.47
2023-02-09T19:11:24.446Z,35.50
2023-02-09T19:13:26.138Z,36.23
2023-02-09T19:15:28.319Z,38.33
2023-02-09T19:17:30.017Z,34.70
2023-02-09T19:19:31.936Z,35.77
2023-02-09T19:21:33.694Z,37.80
2023-02-09T19:23:35.418Z,34.53
2023-02-09T19:25:37.765Z,39.10
2023-02-09T19:27:39.487Z,38.63
2023-02-09T19:29:41.832Z,35.77
2023-02-09T19:31:43.736Z,37.10
2023-02-09T19:33:45.489Z,35.20
2023-02-09T19:35:57.117Z,41.97
2023-02-09T19:37:59.190Z,47.00
2023-02-09T19:40:04.796Z,45.13
2023-02-09T19:42:07.771Z,39.17
2023-02-09T19:44:09.527Z,40.03
2023-02-09T19:46:11.748Z,38.23
2023-02-09T19:48:13.698Z,36.10
2023-02-09T19:50:16.051Z,36.63
2023-02-09T19:52:17.721Z,34.00
2023-02-09T19:54:19.473Z,39.70
2023-02-09T19:56:23.343Z,35.27
2023-02-09T19:58:25.213Z,41.37
2023-02-09T20:00:26.896Z,35.77
2023-02-09T20:02:28.646Z,42.60
2023-02-09T20:04:30.319Z,33.83
2023-02-09T20:06:33.882Z,42.50
2023-02-09T20:08:36.956Z,38.40
2023-02-09T20:10:39.573Z,36.80
2023-02-09T20:12:41.719Z,40.40
2023-02-09T20:14:43.374Z,35.43
2023-02-09T20:16:45.132Z,38.27
2023-02-09T20:18:48.751Z,33.50
2023-02-09T20:20:50.419Z,33.83
2023-02-09T20:22:52.147Z,37.60
2023-02-09T20:24:53.806Z,31.73
2023-02-09T20:26:55.458Z,34.77
2023-02-09T20:28:58.066Z,33.77
2023-02-09T20:31:00.370Z,34.90
2023-02-09T20:33:02.418Z,37.23
2023-02-09T20:35:05.439Z,32.03
2023-02-09T20:37:07.240Z,35.00
2023-02-09T20:39:13.332Z,40.30
2023-02-09T20:41:17.792Z,37.73
2023-02-09T20:43:38.319Z,35.20
2023-02-09T20:45:58.928Z,33.57
2023-02-09T20:48:00.998Z,34.33
2023-02-09T20:50:03.220Z,31.43
2023-02-09T20:52:05.024Z,30.33
2023-02-09T20:54:06.944Z,30.30
2023-02-09T20:56:08.614Z,32.07
2023-02-09T20:58:13.376Z,32.73
2023-02-09T21:00:15.609Z,33.93
2023-02-09T21:02:17.360Z,33.63
2023-02-09T21:04:19.479Z,33.07
2023-02-09T21:06:22.175Z,31.47
2023-02-09T21:08:23.921Z,31.53
2023-02-09T21:10:25.991Z,34.33
2023-02-09T21:12:27.784Z,31.30
2023-02-09T21:14:41.553Z,33.80
2023-02-09T21:16:44.597Z,34.70
2023-02-09T21:18:46.294Z,36.07
2023-02-09T21:20:48.920Z,32.17
2023-02-09T21:22:51.379Z,33.20
2023-02-09T21:24:53.061Z,31.23
2023-02-09T21:26:54.795Z,28.43
2023-02-09T21:28:57.467Z,29.63
2023-02-09T21:30:59.455Z,27.90
2023-02-09T21:33:01.163Z,34.40
2023-02-09T21:35:03.024Z,30.40
2023-02-09T21:37:08.020Z,29.30
2023-02-09T21:39:09.990Z,31.10
2023-02-09T21:41:41.481Z,26.73
2023-02-09T21:43:43.320Z,29.43
2023-02-09T21:45:44.970Z,41.57
2023-02-09T21:47:46.797Z,28.30
2023-02-09T21:49:48.792Z,27.90
2023-02-09T21:51:50.488Z,30.80
2023-02-09T21:53:52.678Z,29.13
2023-02-09T21:55:54.320Z,30.87
2023-02-09T21:57:56.091Z,28.50
2023-02-09T21:59:59.813Z,31.17
2023-02-09T22:02:02.382Z,29.47
2023-02-09T22:04:04.702Z,32.47
2023-02-09T22:06:07.214Z,31.83
2023-02-09T22:08:08.860Z,30.33
2023-02-09T22:10:11.821Z,29.90
2023-02-09T22:12:13.503Z,28.43
2023-02-09T22:14:15.181Z,31.43
2023-02-09T22:16:19.499Z,33.80
2023-02-09T22:18:21.274Z,30.43
2023-02-09T22:20:22.958Z,30.90
2023-02-09T22:22:24.710Z,30.97
2023-02-09T22:24:26.381Z,33.53
2023-02-09T22:26:28.040Z,31.80
2023-02-09T22:28:29.977Z,25.87
2023-02-09T22:30:32.408Z,28.03
2023-02-09T22:32:34.074Z,31.50
2023-02-09T22:34:35.832Z,27.13
2023-02-09T22:36:37.620Z,26.87
2023-02-09T22:38:39.621Z,31.87
2023-02-09T22:40:41.560Z,34.20
2023-02-09T22:42:43.297Z,29.70
2023-02-09T22:44:45.514Z,31.73
2023-02-09T22:46:47.230Z,29.10
2023-02-09T22:48:53.798Z,33.53
2023-02-09T22:50:55.480Z,31.10
2023-02-09T22:52:57.145Z,28.70
2023-02-09T22:54:59.300Z,29.73
2023-02-09T22:57:00.970Z,30.70
2023-02-09T22:59:02.662Z,29.57
2023-02-09T23:01:05.487Z,33.10
2023-02-09T23:03:07.245Z,29.20
2023-02-09T23:05:08.983Z,32.30
2023-02-09T23:07:10.739Z,36.60
2023-02-09T23:09:13.504Z,29.27
2023-02-09T23:11:17.140Z,26.90
2023-02-09T23:13:18.792Z,30.23
2023-02-09T23:15:20.581Z,38.00
2023-02-09T23:17:22.260Z,32.67
2023-02-09T23:19:23.955Z,31.33
2023-02-09T23:21:29.113Z,33.13
2023-02-09T23:23:30.903Z,34.93
2023-02-09T23:25:32.938Z,32.23
2023-02-09T23:27:34.599Z,31.27
2023-02-09T23:29:36.251Z,34.97
2023-02-09T23:31:39.006Z,33.23
2023-02-09T23:33:41.449Z,30.67
2023-02-09T23:35:43.168Z,28.87
2023-02-09T23:37:44.789Z,41.60
2023-02-09T23:39:46.527Z,33.20
2023-02-09T23:41:48.174Z,35.53
2023-02-09T23:43:50.343Z,26.80
2023-02-09T23:45:52.510Z,29.00
2023-02-09T23:47:54.349Z,30.53
2023-02-09T23:49:57.073Z,29.50
2023-02-09T23:51:58.817Z,31.03
2023-02-09T23:54:02.408Z,31.50
2023-02-09T23:56:04.929Z,31.00
2023-02-09T23:58:06.612Z,29.20
